• Join FlightAware (Why Join?)
  • Login
  • US Flag 
02:42AM EDT


 

Airport Tracker/Info


-or-


 

Live Flight TrackerFlight Track Log ✈ EJA831 ✈ 08-Dec-2013 ✈ KMIA - KTPA

Flight Track Log - Related Links

Times and Time Zones

All times are in EST time to prevent confusion due to time zone crossing. See the EJA831 flight status page for this flight to view local times or setup timezone preferences in your user account.

Time Position Orientation Groundspeed Altitude Reporting Facility
EST Latitude Longitude Course Direction KTS MPH feet Rate Location/Type
08:51PM 25.8000 -80.2792 81° East 169 194 900  Level Miami Center
08:53PM 25.8103 -80.2033 81° East 243 280 5,400 2,700 Climbing Miami Center
08:54PM 25.8225 -80.1228 80° East 273 314 7,000 780 Climbing Miami Center
08:55PM 25.8797 -80.0853 31° Northeast 281 323 7,000 1,620 Level Miami Center
08:56PM 25.9789 -80.1317 337° Northwest 317 365 11,000 2,640 Climbing Miami Center
08:57PM 26.0125 -80.2181 293° West 297 342 13,500 2,400 Climbing Miami Center
08:58PM 26.0500 -80.3094 295° West 308 354 15,800 2,340 Climbing Miami Center
08:59PM 26.0914 -80.4169 293° West 335 386 18,200 2,040 Climbing Miami Center
09:00PM 26.1328 -80.5156 295° West 345 397 19,900 900 Climbing Miami Center
09:01PM 26.1908 -80.6119 304° West 356 410 20,000  Climbing Miami Center
09:02PM 26.2617 -80.7022 311° West 376 433 20,000  Level Miami Center
09:03PM 26.3367 -80.7928 313° West 386 444 20,000  Level Miami Center
09:04PM 26.4114 -80.8811 313° West 392 451 20,000  Level Miami Center
09:05PM 26.4883 -80.9719 313° West 397 457 20,000  Level Miami Center
09:06PM 26.5650 -81.0653 313° West 397 457 20,000  Level Miami Center
09:07PM 26.6297 -81.1372 315° West 380 437 20,000  Level Miami Center
09:08PM 26.6942 -81.2161 312° West 354 407 20,000  Level Miami Center
09:09PM 26.7667 -81.3050 312° West 346 398 20,000  Level Miami Center
09:10PM 26.8331 -81.3842 313° West 346 398 20,000  Level Miami Center
09:11PM 26.8994 -81.4636 313° West 346 398 20,000  Level Miami Center
09:12PM 26.9578 -81.5336 313° West 346 398 20,000 -240 Level Miami Center
09:13PM 27.0239 -81.6131 313° West 346 398 19,600 -1,080 Descending Miami Center
09:14PM 27.0922 -81.6975 312° West 336 387 17,900 -1,740 Descending Miami Center
09:15PM 27.1564 -81.7725 314° West 336 387 16,200 -1,620 Descending Miami Center
09:16PM 27.2186 -81.8500 312° West 336 387 14,700 -1,500 Descending Miami Center
09:17PM 27.2786 -81.9225 313° West 330 380 13,300 -1,320 Descending Miami Center
09:18PM 27.3328 -81.9881 313° West 325 374 12,100 -1,200 Descending Miami Center
09:19PM 27.3906 -82.0608 312° West 325 374 10,900 -600 Descending Miami Center
09:20PM 27.4506 -82.1358 312° West 325 374 10,900  Level Miami Center
09:21PM 27.5147 -82.2022 317° Northwest 319 367 10,900  Level Miami Center
09:22PM 27.5969 -82.2386 339° North 317 365 10,900 -840 Level Miami Center
09:23PM 27.6667 -82.2667 340° North 313 360 9,500 -1,860 Descending Tampa TRACON
09:24PM 27.7333 -82.3000 336° Northwest 296 341 7,900 -1,740 Descending Tampa TRACON
09:25PM 27.8167 -82.3333 341° North 288 331 6,200 -1,500 Descending Tampa TRACON
09:26PM 27.8833 -82.3667 336° Northwest 270 311 4,900 -1,560 Descending Tampa TRACON
09:27PM 27.9500 -82.4000 336° Northwest 282 325 3,100 -1,200 Descending Tampa TRACON
09:28PM 28.0167 -82.4167 348° North 204 235 2,600 -300 Descending Tampa TRACON
09:29PM 28.0667 -82.4167 360° North 208 239 2,600 -60 Level Tampa TRACON
09:30PM 28.0833 -82.4833 286° West 177 204 2,500 -600 Descending Tampa TRACON
09:31PM 28.0833 -82.5333 270° West 143 165 1,500 -780 Descending Tampa TRACON
09:32PM 28.0500 -82.5333 180° South 126 145 900 -600 Descending Tampa TRACON
09:33PM 28.0000 -82.5333 180° South 123 142 300 -600 Descending Tampa TRACON
09:35PM 27.9755 -82.5332 190° South  Level Estimated
09:42PM 27.9755 -82.5332 190° South  Level Estimated